Time;durP1;ratioP1;P1;durP2;ratioP2;P2;SDS_P1;SDS_P2;PMS_P1;PMS_P2;Temp;Humidity;BMP_temperature;BMP_pressure;BME280_temperature;BME280_humidity;BME280_pressure;Samples;Min_cycle;Max_cycle;Signal;HPM_P1;HPM_P2
2022/09/01 00:01:20;;;;;;;2.92;1.90;;;;;;;;;;5115434;27;20432;-85
2022/09/01 00:03:51;;;;;;;2.70;1.70;;;;;;;;;;5121160;27;20102;-86
2022/09/01 00:06:21;;;;;;;2.22;1.70;;;;;;;;;;5118507;27;20314;-86
2022/09/01 00:08:58;;;;;;;3.95;2.25;;;;;;;;;;5119304;27;20035;-85
2022/09/01 00:11:25;;;;;;;5.55;2.00;;;;;;;;;;5121274;27;20066;-87
2022/09/01 00:13:51;;;;;;;3.92;2.05;;;;;;;;;;5125793;27;20084;-86
2022/09/01 00:16:19;;;;;;;3.67;2.00;;;;;;;;;;5132629;27;20462;-85
2022/09/01 00:18:48;;;;;;;2.28;1.73;;;;;;;;;;5145854;27;20042;-87
2022/09/01 00:21:14;;;;;;;3.17;2.00;;;;;;;;;;5128490;27;20469;-87
2022/09/01 00:23:40;;;;;;;2.40;1.85;;;;;;;;;;5163815;27;20090;-86
2022/09/01 00:26:07;;;;;;;2.38;2.08;;;;;;;;;;5122649;27;20047;-85
2022/09/01 00:28:33;;;;;;;3.30;1.90;;;;;;;;;;5136679;27;20054;-86
2022/09/01 00:31:00;;;;;;;3.15;2.00;;;;;;;;;;5157571;27;20462;-86
2022/09/01 00:33:26;;;;;;;5.93;2.20;;;;;;;;;;5131775;27;20038;-87
2022/09/01 00:35:52;;;;;;;2.58;1.88;;;;;;;;;;5135058;27;20099;-86
2022/09/01 00:38:18;;;;;;;2.53;2.08;;;;;;;;;;5122723;27;20043;-86
2022/09/01 00:40:44;;;;;;;3.72;2.00;;;;;;;;;;5145025;27;20133;-86
2022/09/01 00:43:14;;;;;;;3.97;2.10;;;;;;;;;;5137223;27;20069;-85
2022/09/01 00:45:41;;;;;;;2.53;2.00;;;;;;;;;;5155054;27;20050;-84
2022/09/01 00:48:08;;;;;;;2.90;2.22;;;;;;;;;;5130902;27;20035;-85
2022/09/01 00:50:34;;;;;;;2.40;2.17;;;;;;;;;;5134688;27;20052;-85
2022/09/01 00:53:00;;;;;;;2.72;2.05;;;;;;;;;;5120594;27;20117;-85
2022/09/01 00:55:28;;;;;;;3.40;2.08;;;;;;;;;;5122241;27;20117;-86
2022/09/01 00:57:54;;;;;;;2.33;2.00;;;;;;;;;;5143596;27;20389;-85
2022/09/01 01:00:25;;;;;;;6.00;2.40;;;;;;;;;;5135191;27;20629;-86
2022/09/01 01:02:55;;;;;;;3.67;2.20;;;;;;;;;;5131384;27;20043;-85
2022/09/01 01:05:26;;;;;;;2.88;1.98;;;;;;;;;;5146260;27;20607;-86
2022/09/01 01:07:55;;;;;;;2.63;2.28;;;;;;;;;;5122199;27;20053;-85
2022/09/01 01:10:25;;;;;;;3.45;2.13;;;;;;;;;;5124375;27;20082;-85
2022/09/01 01:12:51;;;;;;;3.78;2.30;;;;;;;;;;5143359;27;20038;-85
2022/09/01 01:15:18;;;;;;;6.20;2.45;;;;;;;;;;5133441;27;20483;-85
2022/09/01 01:17:44;;;;;;;3.35;2.22;;;;;;;;;;5123253;27;20043;-86
2022/09/01 01:23:09;;;;;;;4.65;2.47;;;;;;;;;;5121171;27;20086;-86
2022/09/01 01:25:44;;;;;;;5.88;2.42;;;;;;;;;;5124630;27;20065;-84
2022/09/01 01:28:13;;;;;;;3.88;2.22;;;;;;;;;;5115989;27;20078;-86
2022/09/01 01:30:40;;;;;;;5.90;2.42;;;;;;;;;;5131549;27;20431;-85
2022/09/01 01:33:07;;;;;;;2.38;2.17;;;;;;;;;;5136206;27;21565;-85
2022/09/01 01:35:33;;;;;;;2.75;2.30;;;;;;;;;;5121822;27;20104;-84
2022/09/01 01:38:00;;;;;;;2.95;2.20;;;;;;;;;;5115675;27;20043;-85
2022/09/01 01:40:28;;;;;;;2.40;2.20;;;;;;;;;;5117392;27;20527;-84
2022/09/01 01:42:56;;;;;;;2.42;2.22;;;;;;;;;;5142333;27;20080;-85
2022/09/01 01:45:23;;;;;;;3.45;2.20;;;;;;;;;;5115535;27;20043;-85
2022/09/01 01:47:52;;;;;;;2.70;2.15;;;;;;;;;;5151322;27;20062;-85
2022/09/01 01:50:32;;;;;;;2.28;2.05;;;;;;;;;;5119304;27;20042;-85
2022/09/01 01:53:01;;;;;;;2.22;1.95;;;;;;;;;;5140689;27;20046;-85
2022/09/01 01:55:27;;;;;;;3.00;2.10;;;;;;;;;;5125793;27;20049;-85
2022/09/01 01:57:55;;;;;;;3.40;2.33;;;;;;;;;;5134220;27;20441;-85
2022/09/01 02:00:22;;;;;;;2.80;2.15;;;;;;;;;;5142436;27;20043;-85
2022/09/01 02:02:55;;;;;;;2.90;2.22;;;;;;;;;;5135250;27;20039;-85
2022/09/01 02:05:23;;;;;;;;;;;;;;;;;;5116810;27;20478;-86
2022/09/01 02:07:50;;;;;;;2.83;2.08;;;;;;;;;;5140505;27;20358;-85
2022/09/01 02:10:16;;;;;;;2.85;2.20;;;;;;;;;;5117559;27;20065;-85
2022/09/01 02:12:42;;;;;;;2.55;2.00;;;;;;;;;;5122966;27;20047;-85
2022/09/01 02:15:11;;;;;;;2.13;2.03;;;;;;;;;;5124001;27;20443;-86
2022/09/01 02:17:41;;;;;;;2.97;1.90;;;;;;;;;;5128420;27;20042;-86
2022/09/01 02:20:08;;;;;;;3.08;1.95;;;;;;;;;;5121935;27;20034;-86
2022/09/01 02:22:36;;;;;;;2.47;2.30;;;;;;;;;;5140628;27;20061;-85
2022/09/01 02:25:03;;;;;;;5.03;2.17;;;;;;;;;;5132207;27;20504;-86
2022/09/01 02:27:29;;;;;;;3.17;2.13;;;;;;;;;;5112820;27;21478;-86
2022/09/01 02:29:57;;;;;;;2.50;2.20;;;;;;;;;;5130972;27;20122;-86
2022/09/01 02:32:23;;;;;;;2.17;1.88;;;;;;;;;;5127162;27;20061;-85
2022/09/01 02:34:52;;;;;;;2.13;1.92;;;;;;;;;;5136366;27;20701;-86
2022/09/01 02:37:24;;;;;;;4.15;2.20;;;;;;;;;;5121648;27;20046;-86
2022/09/01 02:39:51;;;;;;;5.50;1.90;;;;;;;;;;5119501;27;20043;-86
2022/09/01 02:42:17;;;;;;;3.53;1.90;;;;;;;;;;5113020;27;20039;-85
2022/09/01 02:44:43;;;;;;;2.00;1.90;;;;;;;;;;5121005;27;20061;-84
2022/09/01 02:47:09;;;;;;;1.85;1.75;;;;;;;;;;5138116;27;20442;-85
2022/09/01 02:49:37;;;;;;;2.10;2.00;;;;;;;;;;5133645;27;20152;-85
2022/09/01 02:52:04;;;;;;;2.30;2.10;;;;;;;;;;5117116;27;20042;-85
2022/09/01 02:54:31;;;;;;;2.25;2.08;;;;;;;;;;5125744;27;20207;-85
2022/09/01 02:56:57;;;;;;;3.00;2.00;;;;;;;;;;5131863;27;20117;-85
2022/09/01 02:59:25;;;;;;;4.03;2.03;;;;;;;;;;5133384;27;20081;-85
2022/09/01 03:01:52;;;;;;;2.28;2.08;;;;;;;;;;5131621;27;20093;-85
2022/09/01 03:04:19;;;;;;;2.58;2.38;;;;;;;;;;5116125;27;20043;-86
2022/09/01 03:06:45;;;;;;;3.45;2.33;;;;;;;;;;5116674;27;20393;-85
2022/09/01 03:09:14;;;;;;;2.58;2.20;;;;;;;;;;5122112;27;20165;-85
2022/09/01 03:11:41;;;;;;;2.22;2.10;;;;;;;;;;5136139;27;20042;-85
2022/09/01 03:14:07;;;;;;;2.42;2.28;;;;;;;;;;5142659;27;20046;-86
2022/09/01 03:16:34;;;;;;;2.50;2.30;;;;;;;;;;5136696;27;20047;-84
2022/09/01 03:19:02;;;;;;;4.80;2.30;;;;;;;;;;5134978;27;20047;-86
2022/09/01 03:21:30;;;;;;;4.07;2.38;;;;;;;;;;5134015;27;20043;-86
2022/09/01 03:24:02;;;;;;;3.15;2.10;;;;;;;;;;5126242;27;20054;-85
2022/09/01 03:26:29;;;;;;;2.88;2.08;;;;;;;;;;5134913;27;20043;-85
2022/09/01 03:28:55;;;;;;;3.65;2.17;;;;;;;;;;5135603;27;20034;-85
2022/09/01 03:31:21;;;;;;;2.35;2.15;;;;;;;;;;5115590;27;20043;-85
2022/09/01 03:33:47;;;;;;;3.03;2.30;;;;;;;;;;5117786;27;20047;-85
2022/09/01 03:36:18;;;;;;;2.92;2.30;;;;;;;;;;5121510;27;20051;-85
2022/09/01 03:38:47;;;;;;;2.47;2.28;;;;;;;;;;5142776;27;20046;-86
2022/09/01 03:41:15;;;;;;;2.30;2.20;;;;;;;;;;5118872;27;20170;-84
2022/09/01 03:43:41;;;;;;;2.50;2.30;;;;;;;;;;5140682;27;20054;-84
2022/09/01 03:46:09;;;;;;;2.58;2.30;;;;;;;;;;5136605;27;20038;-85
2022/09/01 03:48:35;;;;;;;2.30;2.10;;;;;;;;;;5150469;27;20055;-85
2022/09/01 03:51:01;;;;;;;2.40;2.20;;;;;;;;;;5140264;27;20043;-85
2022/09/01 03:53:28;;;;;;;2.20;2.10;;;;;;;;;;5130700;27;20035;-84
2022/09/01 03:55:56;;;;;;;2.72;2.53;;;;;;;;;;5138190;27;20095;-84
2022/09/01 03:58:23;;;;;;;3.33;2.47;;;;;;;;;;5117270;27;20046;-85
2022/09/01 04:00:54;;;;;;;2.85;2.25;;;;;;;;;;5132916;27;20054;-84
2022/09/01 04:03:21;;;;;;;4.90;2.40;;;;;;;;;;5144171;27;20385;-86
2022/09/01 04:05:48;;;;;;;3.10;2.30;;;;;;;;;;5132690;27;20039;-84
2022/09/01 04:08:14;;;;;;;2.95;2.40;;;;;;;;;;5134973;27;20491;-85
2022/09/01 04:11:01;;;;;;;2.58;2.42;;;;;;;;;;5139097;27;20035;-84
2022/09/01 04:13:33;;;;;;;3.05;2.17;;;;;;;;;;5132888;27;20047;-85
2022/09/01 04:15:59;;;;;;;2.40;2.20;;;;;;;;;;5152367;27;20121;-85
2022/09/01 04:18:25;;;;;;;2.40;2.20;;;;;;;;;;5134743;27;20187;-86
2022/09/01 04:20:52;;;;;;;2.30;2.20;;;;;;;;;;5134153;27;20058;-85
2022/09/01 04:23:25;;;;;;;2.40;2.20;;;;;;;;;;5115322;27;20047;-85
2022/09/01 04:25:55;;;;;;;2.30;2.20;;;;;;;;;;5134103;27;20083;-85
2022/09/01 04:28:23;;;;;;;3.10;2.20;;;;;;;;;;5137894;27;20045;-85
2022/09/01 04:30:58;;;;;;;2.22;2.13;;;;;;;;;;5126567;27;20052;-85
2022/09/01 04:33:26;;;;;;;3.25;2.40;;;;;;;;;;5128143;27;20511;-85
2022/09/01 04:35:55;;;;;;;3.15;2.40;;;;;;;;;;5112783;27;20051;-85
2022/09/01 04:38:23;;;;;;;2.63;2.30;;;;;;;;;;5108967;27;20147;-85
2022/09/01 04:40:49;;;;;;;2.10;2.00;;;;;;;;;;5130822;27;20054;-85
2022/09/01 04:43:15;;;;;;;2.67;2.47;;;;;;;;;;5109155;27;20047;-85
2022/09/01 04:45:41;;;;;;;2.75;2.25;;;;;;;;;;5129446;27;20078;-84
2022/09/01 04:48:08;;;;;;;2.70;2.22;;;;;;;;;;5110353;27;20047;-85
2022/09/01 04:50:36;;;;;;;2.60;2.40;;;;;;;;;;5110328;27;20514;-85
2022/09/01 04:53:05;;;;;;;2.30;2.20;;;;;;;;;;5129233;27;20039;-85
2022/09/01 04:55:31;;;;;;;2.78;2.42;;;;;;;;;;5115029;27;20305;-85
2022/09/01 04:57:58;;;;;;;2.30;2.20;;;;;;;;;;5133632;27;20077;-84
2022/09/01 05:00:26;;;;;;;2.72;2.50;;;;;;;;;;5134643;27;20054;-85
2022/09/01 05:02:54;;;;;;;2.40;2.20;;;;;;;;;;5137042;27;20075;-85
2022/09/01 05:05:21;;;;;;;3.83;2.30;;;;;;;;;;5134010;27;20103;-86
2022/09/01 05:07:54;;;;;;;2.60;2.40;;;;;;;;;;5149742;27;20068;-85
2022/09/01 05:10:21;;;;;;;2.45;2.33;;;;;;;;;;5121597;27;20054;-85
2022/09/01 05:12:47;;;;;;;2.50;2.30;;;;;;;;;;5142832;27;20035;-85
2022/09/01 05:15:14;;;;;;;3.15;2.33;;;;;;;;;;5151407;27;20504;-86
2022/09/01 05:17:40;;;;;;;3.25;2.50;;;;;;;;;;5146467;27;20043;-85
2022/09/01 05:20:08;;;;;;;4.47;3.88;;;;;;;;;;5139136;27;20124;-87
2022/09/01 05:22:34;;;;;;;3.30;2.60;;;;;;;;;;5133399;27;20058;-86
2022/09/01 05:25:12;;;;;;;3.15;2.50;;;;;;;;;;5147681;27;20038;-86
2022/09/01 05:27:39;;;;;;;2.58;2.38;;;;;;;;;;5126532;27;20051;-85
2022/09/01 05:30:07;;;;;;;2.60;2.45;;;;;;;;;;5156271;27;20038;-86
2022/09/01 05:32:36;;;;;;;3.22;2.30;;;;;;;;;;5141981;27;20118;-85
2022/09/01 05:35:06;;;;;;;3.97;2.20;;;;;;;;;;5151060;27;20085;-86
2022/09/01 05:37:33;;;;;;;5.28;2.40;;;;;;;;;;5130959;27;20082;-86
2022/09/01 05:39:59;;;;;;;2.83;2.53;;;;;;;;;;5147912;27;20489;-85
2022/09/01 05:42:27;;;;;;;3.58;2.42;;;;;;;;;;5145150;27;20036;-86
2022/09/01 05:44:53;;;;;;;2.72;2.35;;;;;;;;;;5159049;27;20053;-84
2022/09/01 05:47:20;;;;;;;4.90;2.40;;;;;;;;;;5125049;27;20046;-85
2022/09/01 05:49:46;;;;;;;4.65;2.65;;;;;;;;;;5139120;27;20046;-84
2022/09/01 05:52:12;;;;;;;3.65;2.60;;;;;;;;;;5140446;27;20054;-85
2022/09/01 05:54:40;;;;;;;2.65;2.40;;;;;;;;;;5143041;27;20498;-84
2022/09/01 05:57:06;;;;;;;2.60;2.40;;;;;;;;;;5120280;27;20039;-85
2022/09/01 05:59:32;;;;;;;3.15;2.50;;;;;;;;;;5122354;27;20046;-84
2022/09/01 06:01:59;;;;;;;2.80;2.60;;;;;;;;;;5157610;27;20469;-84
2022/09/01 06:04:26;;;;;;;3.30;2.53;;;;;;;;;;5168517;27;20072;-85
2022/09/01 06:06:55;;;;;;;3.65;2.45;;;;;;;;;;5171857;27;20042;-84
2022/09/01 06:09:22;;;;;;;2.70;2.50;;;;;;;;;;5143836;27;20056;-85
2022/09/01 06:11:48;;;;;;;3.45;2.67;;;;;;;;;;5131131;27;20047;-85
2022/09/01 06:14:15;;;;;;;2.75;2.55;;;;;;;;;;5130225;27;20143;-84
2022/09/01 06:16:41;;;;;;;2.88;2.55;;;;;;;;;;5134902;27;20182;-86
2022/09/01 06:19:09;;;;;;;3.13;2.40;;;;;;;;;;5136704;27;20043;-84
2022/09/01 06:21:35;;;;;;;3.85;2.42;;;;;;;;;;5132744;27;20073;-87
2022/09/01 06:24:03;;;;;;;3.92;2.50;;;;;;;;;;5137467;27;20558;-87
2022/09/01 06:26:30;;;;;;;4.88;2.58;;;;;;;;;;5146542;27;20112;-85
2022/09/01 06:29:02;;;;;;;4.63;2.83;;;;;;;;;;5131018;27;20038;-85
2022/09/01 06:31:32;;;;;;;2.90;2.70;;;;;;;;;;5159380;27;20082;-85
2022/09/01 06:33:59;;;;;;;2.63;2.42;;;;;;;;;;5147427;27;20043;-86
2022/09/01 06:36:25;;;;;;;2.78;2.58;;;;;;;;;;5136117;27;20131;-86
2022/09/01 06:38:53;;;;;;;3.00;2.80;;;;;;;;;;5145274;27;20080;-86
2022/09/01 06:41:20;;;;;;;2.78;2.58;;;;;;;;;;5128416;27;20080;-85
2022/09/01 06:43:48;;;;;;;2.83;2.63;;;;;;;;;;5135123;27;20047;-85
2022/09/01 06:46:15;;;;;;;3.13;2.78;;;;;;;;;;5139234;27;20125;-87
2022/09/01 06:48:45;;;;;;;3.25;2.72;;;;;;;;;;5131402;27;20107;-87
2022/09/01 06:51:12;;;;;;;3.85;2.80;;;;;;;;;;5147183;27;20555;-85
2022/09/01 06:53:39;;;;;;;5.38;2.70;;;;;;;;;;5149840;27;20039;-86
2022/09/01 06:56:05;;;;;;;2.80;2.60;;;;;;;;;;5129356;27;20129;-84
2022/09/01 06:58:32;;;;;;;2.75;2.55;;;;;;;;;;5123554;27;20050;-85
2022/09/01 07:00:58;;;;;;;3.70;2.60;;;;;;;;;;5121015;27;20081;-84
2022/09/01 07:03:25;;;;;;;2.83;2.63;;;;;;;;;;5125747;27;20039;-84
2022/09/01 07:05:51;;;;;;;3.13;2.63;;;;;;;;;;5126621;27;20083;-84
2022/09/01 07:08:18;;;;;;;4.25;2.53;;;;;;;;;;5142705;27;20175;-84
2022/09/01 07:10:50;;;;;;;3.30;2.35;;;;;;;;;;5118853;27;20047;-84
2022/09/01 07:13:22;;;;;;;3.38;2.45;;;;;;;;;;5125207;27;20099;-85
2022/09/01 07:15:52;;;;;;;3.97;2.95;;;;;;;;;;5136007;27;20544;-82
2022/09/01 07:18:25;;;;;;;3.63;2.42;;;;;;;;;;5117814;27;20064;-86
2022/09/01 07:20:52;;;;;;;2.80;2.60;;;;;;;;;;5139283;27;20435;-86
2022/09/01 07:23:19;;;;;;;3.20;2.65;;;;;;;;;;5131417;27;20048;-84
2022/09/01 07:25:46;;;;;;;2.72;2.47;;;;;;;;;;5113366;27;20035;-85
2022/09/01 07:28:13;;;;;;;3.40;2.80;;;;;;;;;;5144745;27;20401;-85
2022/09/01 07:30:41;;;;;;;2.83;2.63;;;;;;;;;;5141345;27;20034;-85
2022/09/01 07:33:10;;;;;;;4.15;2.80;;;;;;;;;;5129641;27;20042;-86
2022/09/01 07:35:37;;;;;;;6.05;2.97;;;;;;;;;;5150642;27;20100;-85
2022/09/01 07:38:05;;;;;;;5.95;2.85;;;;;;;;;;5121591;27;20042;-85
2022/09/01 07:40:33;;;;;;;2.75;2.55;;;;;;;;;;5124652;27;20529;-85
2022/09/01 07:42:59;;;;;;;3.33;2.90;;;;;;;;;;5127866;27;20087;-83
2022/09/01 07:45:26;;;;;;;3.88;2.70;;;;;;;;;;5127796;27;21899;-85
2022/09/01 07:47:52;;;;;;;3.17;2.65;;;;;;;;;;5140256;27;20039;-84
2022/09/01 07:50:19;;;;;;;2.80;2.40;;;;;;;;;;5130190;27;20087;-84
2022/09/01 07:52:48;;;;;;;2.90;2.70;;;;;;;;;;5148113;27;20103;-84
2022/09/01 07:55:15;;;;;;;3.83;2.70;;;;;;;;;;5122041;27;20051;-84
2022/09/01 07:57:42;;;;;;;2.97;2.72;;;;;;;;;;5121489;27;20502;-85
2022/09/01 08:00:12;;;;;;;2.88;2.53;;;;;;;;;;5145123;27;20506;-84
2022/09/01 08:02:38;;;;;;;4.28;2.65;;;;;;;;;;5144206;27;20039;-84
2022/09/01 08:05:08;;;;;;;3.00;2.80;;;;;;;;;;5127441;27;20049;-84
2022/09/01 08:07:35;;;;;;;3.63;2.67;;;;;;;;;;5152289;27;20485;-84
2022/09/01 08:10:01;;;;;;;4.88;2.70;;;;;;;;;;5147172;27;20478;-83
2022/09/01 08:12:28;;;;;;;3.00;2.78;;;;;;;;;;5149549;27;20046;-85
2022/09/01 08:14:54;;;;;;;4.57;2.80;;;;;;;;;;5125551;27;20039;-84
2022/09/01 08:17:20;;;;;;;6.53;2.58;;;;;;;;;;5126583;27;20096;-85
2022/09/01 08:19:46;;;;;;;3.83;2.67;;;;;;;;;;5126359;27;20486;-84
2022/09/01 08:22:13;;;;;;;2.88;2.67;;;;;;;;;;5140775;27;20060;-86
2022/09/01 08:24:39;;;;;;;2.90;2.60;;;;;;;;;;5123731;27;20054;-84
2022/09/01 08:27:05;;;;;;;3.05;2.50;;;;;;;;;;5136656;27;20095;-83
2022/09/01 08:29:31;;;;;;;2.53;2.38;;;;;;;;;;5127534;27;20172;-87
2022/09/01 08:32:01;;;;;;;3.10;2.80;;;;;;;;;;5145157;27;20072;-86
2022/09/01 08:34:27;;;;;;;3.33;2.45;;;;;;;;;;5126295;27;20059;-86
2022/09/01 08:36:53;;;;;;;3.42;2.25;;;;;;;;;;5134352;27;20047;-86
2022/09/01 08:39:19;;;;;;;2.60;2.40;;;;;;;;;;5146653;27;20111;-88
2022/09/01 08:41:54;;;;;;;2.35;2.25;;;;;;;;;;5133325;27;20035;-86
2022/09/01 08:44:38;;;;;;;2.30;2.10;;;;;;;;;;5157981;27;20565;-86
2022/09/01 08:47:06;;;;;;;2.70;2.47;;;;;;;;;;5133949;27;20065;-89
2022/09/01 08:49:35;;;;;;;2.72;2.50;;;;;;;;;;5145720;27;20046;-89
2022/09/01 08:52:07;;;;;;;2.67;2.47;;;;;;;;;;5150712;27;20078;-85
2022/09/01 08:54:38;;;;;;;2.78;2.28;;;;;;;;;;5130289;27;20062;-86
2022/09/01 08:57:06;;;;;;;2.50;2.30;;;;;;;;;;5129767;27;20043;-85
2022/09/01 08:59:32;;;;;;;2.63;2.20;;;;;;;;;;5133266;27;20046;-85
2022/09/01 09:02:13;;;;;;;3.45;2.33;;;;;;;;;;5134316;27;20047;-87
2022/09/01 09:04:58;;;;;;;2.72;2.17;;;;;;;;;;5129568;27;20120;-90
2022/09/01 09:07:24;;;;;;;2.22;2.10;;;;;;;;;;5154598;27;20041;-86
2022/09/01 09:09:54;;;;;;;3.65;2.35;;;;;;;;;;5156763;27;20118;-80
2022/09/01 09:12:20;;;;;;;2.47;2.28;;;;;;;;;;5127724;27;20051;-83
2022/09/01 09:14:49;;;;;;;3.15;2.20;;;;;;;;;;5136515;27;20050;-81
2022/09/01 09:17:17;;;;;;;3.42;2.20;;;;;;;;;;5133776;27;20133;-79
2022/09/01 09:19:45;;;;;;;2.53;2.20;;;;;;;;;;5128781;27;20204;-82
2022/09/01 09:22:14;;;;;;;2.40;2.20;;;;;;;;;;5129355;27;20059;-84
2022/09/01 09:24:49;;;;;;;2.35;2.15;;;;;;;;;;5144961;27;20047;-83
2022/09/01 09:27:30;;;;;;;2.70;2.20;;;;;;;;;;5130553;27;20099;-85
2022/09/01 09:30:00;;;;;;;2.83;2.60;;;;;;;;;;5128395;27;20498;-87
2022/09/01 09:32:47;;;;;;;2.53;2.20;;;;;;;;;;5152730;27;20138;-87
2022/09/01 09:35:19;;;;;;;2.53;2.33;;;;;;;;;;5126748;27;20043;-86
2022/09/01 09:37:45;;;;;;;2.42;2.22;;;;;;;;;;5152440;27;20054;-84
2022/09/01 09:40:19;;;;;;;2.38;2.13;;;;;;;;;;5141424;27;20039;-87
2022/09/01 09:42:54;;;;;;;3.22;2.15;;;;;;;;;;5131282;27;20035;-87
2022/09/01 09:45:24;;;;;;;2.70;2.13;;;;;;;;;;5131610;27;20050;-87
2022/09/01 09:47:51;;;;;;;2.58;2.13;;;;;;;;;;5130340;27;20091;-84
2022/09/01 09:50:21;;;;;;;2.70;1.90;;;;;;;;;;5150753;27;20080;-86
2022/09/01 09:52:48;;;;;;;2.03;1.80;;;;;;;;;;5134938;27;20095;-86
2022/09/01 09:55:26;;;;;;;2.05;1.85;;;;;;;;;;5132671;27;20046;-88
2022/09/01 09:57:59;;;;;;;1.90;1.80;;;;;;;;;;5133859;27;20042;-88
2022/09/01 10:00:32;;;;;;;2.00;1.90;;;;;;;;;;5151358;27;20143;-90
2022/09/01 10:03:07;;;;;;;3.15;1.95;;;;;;;;;;5137824;27;20505;-87
2022/09/01 10:05:52;;;;;;;2.55;1.60;;;;;;;;;;5141742;27;20051;-89
2022/09/01 10:08:35;;;;;;;3.60;1.65;;;;;;;;;;5159586;27;20042;-88
2022/09/01 10:11:01;;;;;;;;;;;;;;;;;;5150268;27;20046;-87
2022/09/01 10:13:28;;;;;;;1.70;1.50;;;;;;;;;;5134480;27;19923;-86
2022/09/01 10:16:17;;;;;;;1.58;1.48;;;;;;;;;;5146839;27;20086;-82
2022/09/01 10:18:45;;;;;;;1.50;1.40;;;;;;;;;;5148933;27;20035;-84
2022/09/01 10:21:43;;;;;;;3.70;1.73;;;;;;;;;;5151481;27;20034;-84
2022/09/01 10:24:34;;;;;;;1.52;1.42;;;;;;;;;;5084017;27;20048;-88
2022/09/01 10:27:01;;;;;;;2.80;1.50;;;;;;;;;;5107558;27;20096;-84
2022/09/01 10:29:28;;;;;;;1.42;1.30;;;;;;;;;;5106026;27;20054;-85
2022/09/01 10:31:55;;;;;;;2.38;1.58;;;;;;;;;;5103109;27;20502;-88
2022/09/01 10:34:22;;;;;;;1.50;1.40;;;;;;;;;;5109332;27;20044;-90
2022/09/01 10:36:49;;;;;;;1.40;1.30;;;;;;;;;;5108879;27;20144;-88
2022/09/01 10:39:16;;;;;;;6.20;1.65;;;;;;;;;;5104227;27;20048;-90
2022/09/01 10:41:42;;;;;;;3.38;1.40;;;;;;;;;;5103918;27;20407;-89
2022/09/01 10:44:10;;;;;;;1.58;1.40;;;;;;;;;;5101840;27;20048;-91
2022/09/01 10:46:36;;;;;;;1.70;1.45;;;;;;;;;;5140893;27;20044;-89
2022/09/01 10:49:12;;;;;;;3.08;1.50;;;;;;;;;;5098680;27;20048;-89
2022/09/01 10:51:43;;;;;;;1.67;1.58;;;;;;;;;;5109731;27;21745;-90
2022/09/01 10:54:09;;;;;;;1.60;1.48;;;;;;;;;;5110003;27;20043;-90
2022/09/01 10:56:47;;;;;;;1.60;1.50;;;;;;;;;;5112380;27;20052;-89
2022/09/01 10:59:23;;;;;;;2.00;1.40;;;;;;;;;;5105504;27;20052;-87
2022/09/01 11:01:49;;;;;;;2.22;1.50;;;;;;;;;;5098454;28;20444;-85
2022/09/01 11:04:35;;;;;;;1.50;1.40;;;;;;;;;;5103295;28;20368;-89
2022/09/01 11:07:03;;;;;;;1.77;1.40;;;;;;;;;;5106671;27;20045;-87
2022/09/01 11:09:29;;;;;;;2.42;1.27;;;;;;;;;;5106248;27;20058;-84
2022/09/01 11:12:02;;;;;;;2.28;1.50;;;;;;;;;;5092477;28;20039;-86
2022/09/01 11:14:28;;;;;;;1.50;1.40;;;;;;;;;;5098393;28;20552;-87
2022/09/01 11:17:13;;;;;;;1.50;1.38;;;;;;;;;;5105592;27;20047;-83
2022/09/01 11:19:47;;;;;;;1.30;1.30;;;;;;;;;;5105639;27;20688;-81
2022/09/01 11:22:12;;;;;;;1.58;1.40;;;;;;;;;;5097256;28;20044;-83
2022/09/01 11:24:41;;;;;;;2.72;1.25;;;;;;;;;;5097011;28;20050;-90
2022/09/01 11:27:08;;;;;;;1.20;1.20;;;;;;;;;;5095154;28;20043;-84
2022/09/01 11:29:55;;;;;;;1.30;1.20;;;;;;;;;;5101742;27;20044;-82
2022/09/01 11:32:23;;;;;;;1.90;1.80;;;;;;;;;;5107871;27;20044;-86
2022/09/01 11:34:50;;;;;;;1.85;1.70;;;;;;;;;;5107700;27;20082;-85
2022/09/01 11:37:19;;;;;;;4.15;1.38;;;;;;;;;;5108951;27;20432;-85
2022/09/01 11:39:49;;;;;;;2.70;1.40;;;;;;;;;;5104625;28;20403;-87
2022/09/01 11:42:15;;;;;;;1.55;1.45;;;;;;;;;;5110053;27;20040;-86
2022/09/01 11:44:50;;;;;;;1.40;1.30;;;;;;;;;;5101501;27;20039;-85
2022/09/01 11:47:16;;;;;;;1.63;1.45;;;;;;;;;;5099117;27;20490;-85
2022/09/01 11:49:48;;;;;;;1.33;1.23;;;;;;;;;;5106152;27;20035;-86
2022/09/01 11:52:15;;;;;;;4.93;1.48;;;;;;;;;;5101525;27;20051;-85
2022/09/01 11:54:42;;;;;;;2.92;1.40;;;;;;;;;;5108944;27;20035;-85
2022/09/01 11:57:22;;;;;;;1.60;1.48;;;;;;;;;;5103829;28;20051;-85
2022/09/01 11:59:48;;;;;;;1.35;1.13;;;;;;;;;;5098505;27;20096;-85
2022/09/01 12:02:18;;;;;;;1.92;1.40;;;;;;;;;;5107729;27;20073;-86
2022/09/01 12:04:45;;;;;;;1.10;1.10;;;;;;;;;;5103739;28;20107;-87
2022/09/01 12:07:13;;;;;;;1.40;1.30;;;;;;;;;;5104390;28;20130;-86
2022/09/01 12:09:42;;;;;;;2.63;1.33;;;;;;;;;;5107293;28;20498;-86
2022/09/01 12:12:26;;;;;;;5.50;1.55;;;;;;;;;;5108642;28;20039;-85
2022/09/01 12:15:12;;;;;;;2.22;1.27;;;;;;;;;;5104156;28;20035;-87
2022/09/01 12:17:38;;;;;;;1.27;1.20;;;;;;;;;;5091184;27;20529;-87
2022/09/01 12:20:26;;;;;;;6.28;2.78;;;;;;;;;;5114397;27;20518;-85
2022/09/01 12:22:52;;;;;;;3.80;1.33;;;;;;;;;;5132228;27;20498;-87
2022/09/01 12:25:26;;;;;;;1.45;1.20;;;;;;;;;;5136510;27;20378;-86
2022/09/01 12:27:52;;;;;;;2.45;1.38;;;;;;;;;;5152085;27;20043;-86
2022/09/01 12:30:19;;;;;;;2.10;1.30;;;;;;;;;;5135680;27;20039;-83
2022/09/01 12:32:45;;;;;;;3.00;1.40;;;;;;;;;;5143129;27;20053;-87
2022/09/01 12:35:25;;;;;;;1.83;1.30;;;;;;;;;;5157147;27;20030;-86
2022/09/01 12:37:51;;;;;;;2.88;1.50;;;;;;;;;;5148170;27;20039;-85
2022/09/01 12:40:44;;;;;;;2.63;1.50;;;;;;;;;;5136718;27;20035;-85
2022/09/01 12:43:10;;;;;;;3.13;1.60;;;;;;;;;;5150910;27;20055;-85
2022/09/01 12:45:37;;;;;;;1.58;1.40;;;;;;;;;;5129877;27;20328;-85
2022/09/01 12:48:03;;;;;;;1.75;1.40;;;;;;;;;;5125942;27;20121;-85
2022/09/01 12:50:30;;;;;;;1.30;1.20;;;;;;;;;;5151649;27;20086;-87
2022/09/01 12:53:00;;;;;;;2.22;1.40;;;;;;;;;;5136878;27;20042;-86
2022/09/01 12:55:31;;;;;;;3.33;1.30;;;;;;;;;;5122597;27;20505;-86
2022/09/01 12:57:59;;;;;;;1.33;1.23;;;;;;;;;;5130564;27;20070;-85
2022/09/01 13:00:29;;;;;;;2.15;1.30;;;;;;;;;;5134792;27;20074;-85
2022/09/01 13:02:58;;;;;;;1.67;1.38;;;;;;;;;;5152095;27;20038;-85
2022/09/01 13:05:33;;;;;;;1.30;1.20;;;;;;;;;;5153636;27;20038;-87
2022/09/01 13:08:07;;;;;;;2.50;1.30;;;;;;;;;;5134355;27;20038;-86
2022/09/01 13:10:36;;;;;;;1.40;1.30;;;;;;;;;;5134479;27;20050;-86
2022/09/01 13:13:03;;;;;;;1.25;1.20;;;;;;;;;;5149505;27;20067;-88
2022/09/01 13:15:29;;;;;;;2.47;1.20;;;;;;;;;;5154753;27;20125;-86
2022/09/01 13:17:56;;;;;;;1.30;1.20;;;;;;;;;;5137101;27;20042;-88
2022/09/01 13:20:22;;;;;;;1.30;1.20;;;;;;;;;;5143340;27;20050;-89
2022/09/01 13:22:48;;;;;;;1.40;1.30;;;;;;;;;;5153556;27;20054;-91
2022/09/01 13:25:16;;;;;;;2.85;1.20;;;;;;;;;;5156350;27;20059;-94
2022/09/01 13:27:46;;;;;;;1.40;1.10;;;;;;;;;;5153768;27;20123;-92
2022/09/01 13:30:14;;;;;;;1.00;1.00;;;;;;;;;;5158613;27;20069;-92
2022/09/01 13:32:40;;;;;;;1.30;1.20;;;;;;;;;;5153625;27;20047;-88
2022/09/01 13:35:06;;;;;;;0.93;0.93;;;;;;;;;;5128524;27;20091;-90
2022/09/01 13:37:32;;;;;;;2.55;1.30;;;;;;;;;;5155256;27;20042;-92
2022/09/01 13:39:58;;;;;;;3.50;1.20;;;;;;;;;;5127010;27;20043;-90
2022/09/01 13:42:24;;;;;;;1.10;1.10;;;;;;;;;;5152013;27;20184;-91
2022/09/01 13:44:50;;;;;;;2.10;1.10;;;;;;;;;;5132791;27;20134;-88
2022/09/01 13:47:16;;;;;;;1.52;1.25;;;;;;;;;;5151266;27;20195;-90
2022/09/01 13:49:42;;;;;;;1.30;1.20;;;;;;;;;;5130161;27;20063;-91
2022/09/01 13:52:08;;;;;;;1.38;1.20;;;;;;;;;;5129930;27;20054;-90
2022/09/01 13:54:34;;;;;;;1.80;1.20;;;;;;;;;;5135735;27;20050;-89
2022/09/01 13:57:00;;;;;;;1.25;1.15;;;;;;;;;;5152706;27;20045;-91
2022/09/01 13:59:26;;;;;;;2.08;1.25;;;;;;;;;;5155126;27;20240;-91
2022/09/01 14:01:52;;;;;;;1.38;1.20;;;;;;;;;;5146252;27;20493;-91
2022/09/01 14:04:18;;;;;;;1.67;1.13;;;;;;;;;;5169310;27;20524;-91
2022/09/01 14:06:45;;;;;;;2.05;1.00;;;;;;;;;;5141394;27;20051;-92
2022/09/01 14:09:11;;;;;;;1.55;1.08;;;;;;;;;;5133738;27;20114;-92
2022/09/01 14:11:38;;;;;;;1.10;1.00;;;;;;;;;;5149141;27;20043;-89
2022/09/01 14:14:05;;;;;;;1.10;1.00;;;;;;;;;;5126452;27;20050;-90
2022/09/01 14:16:31;;;;;;;2.65;1.23;;;;;;;;;;5131587;27;20073;-87
2022/09/01 14:18:58;;;;;;;1.30;1.20;;;;;;;;;;5132535;27;20071;-90
2022/09/01 14:21:25;;;;;;;4.57;1.30;;;;;;;;;;5134308;27;20486;-92
2022/09/01 14:23:51;;;;;;;2.03;1.20;;;;;;;;;;5150528;27;20038;-90
2022/09/01 14:26:17;;;;;;;3.45;1.10;;;;;;;;;;5148662;27;20051;-90
2022/09/01 14:28:44;;;;;;;2.08;1.17;;;;;;;;;;5133898;27;20086;-89
2022/09/01 14:31:16;;;;;;;1.67;1.10;;;;;;;;;;5128996;27;20125;-91
2022/09/01 14:33:43;;;;;;;1.25;1.15;;;;;;;;;;5128432;27;20046;-91
2022/09/01 14:36:15;;;;;;;3.25;1.17;;;;;;;;;;5144443;27;20046;-90
2022/09/01 14:38:41;;;;;;;;;;;;;;;;;;5127076;27;20035;-91
2022/09/01 14:41:07;;;;;;;1.63;1.10;;;;;;;;;;5130951;27;20297;-90
2022/09/01 14:43:33;;;;;;;1.13;1.05;;;;;;;;;;5129769;27;20047;-91
2022/09/01 14:46:08;;;;;;;2.28;1.10;;;;;;;;;;5128364;27;20099;-86
2022/09/01 14:48:34;;;;;;;1.67;0.90;;;;;;;;;;5143166;27;20092;-91
2022/09/01 14:51:00;;;;;;;2.85;1.17;;;;;;;;;;5150796;27;20048;-90
2022/09/01 14:53:28;;;;;;;2.92;1.25;;;;;;;;;;5123656;27;20087;-87
2022/09/01 14:55:54;;;;;;;2.67;1.00;;;;;;;;;;5130144;27;20047;-88